James L. Oberstar — WDC6154 — position and weather

sailwx.info

Track history (hours):
 
Tides and Currents Weather Stations Pressure Air Temp Water Temp Dewpoint Dewpoint Depression Visibility Wind Speed Wind Dir Waves Ship Positions

James L. Oberstar

Owner: Destin Trading Corporation, harahan, LA. More information available from US FCC via Universal Licensing System and Coast Guard Vessel Documentation Center.

Last reported at 2017-Sep-08 08:10 UTC. Time now 2017-Sep-22 08:04 UTC.
Position N 29°49' W 092°03'.
Warning: this ship's position is 13 days out of date.

Length 26 m; draft 3 m.

Type: Towing. MMSI: 367052120.

Date/timePositionNaut miles runAvg speedWind from/ knotsBaromVisibWave heightAir tempDewpointWater temp
2017-Sep-08 08:10N 29°49' W 092°03'1 5.0
2017-Sep-08 07:59N 29°48' W 092°05'2 4.9
2017-Sep-08 07:30N 29°47' W 092°07'3 5.1
2017-Sep-08 07:00N 29°47' W 092°10'2 4.7
2017-Sep-08 06:30N 29°47' W 092°13'2 3.6
2017-Sep-08 06:00N 29°48' W 092°14'3 5.2
2017-Sep-08 05:30N 29°49' W 092°17'44 4.5
2017-Sep-07 19:48N 29°56' W 093°07'1 4.3
2017-Sep-07 19:30N 29°56' W 093°08'1 2.8
2017-Sep-07 19:00N 29°56' W 093°10'2 4.5
2017-Sep-07 18:30N 29°58' W 093°11'2 4.5
2017-Sep-07 18:00N 29°60' W 093°13'2 3.9
2017-Sep-07 17:30N 30°02' W 093°14'2 3.8
2017-Sep-07 17:00N 30°03' W 093°16'1 2.1
2017-Sep-07 16:30N 30°04' W 093°16'2 3.6
2017-Sep-07 16:00N 30°05' W 093°17'1 2.7
2017-Sep-07 15:30N 30°06' W 093°19'1 2.5
2017-Sep-07 15:00N 30°05' W 093°20'2 4.1
2017-Sep-07 14:30N 30°04' W 093°21'10 4.1
2017-Sep-07 12:08N 30°04' W 093°32'1 4.2
2017-Sep-07 11:59N 30°04' W 093°33'2 4.0
2017-Sep-07 11:30N 30°04' W 093°35'2 4.3
2017-Sep-07 11:00N 30°04' W 093°38'2 4.7
2017-Sep-07 10:29N 30°04' W 093°41'4 0.9
2017-Sep-07 05:22N 30°01' W 093°45'0 0.0
2017-Sep-07 04:59N 30°01' W 093°45'66 2.2
2017-Sep-05 22:50N 29°31' W 094°53'2 6.3
2017-Sep-05 22:30N 29°33' W 094°55'3 6.3
2017-Sep-05 22:00N 29°36' W 094°57'3 6.4
2017-Sep-05 21:30N 29°39' W 094°58'3 6.5
2017-Sep-05 21:00N 29°42' W 094°60'3 5.6
2017-Sep-05 20:30N 29°44' W 095°02'4 0.6
2017-Sep-05 12:43N 29°47' W 095°05'0 0.0
2017-Sep-05 12:22N 29°47' W 095°05'0 0.0
2017-Sep-05 11:57N 29°47' W 095°05'0 0.0
2017-Sep-05 11:23N 29°47' W 095°05'0 0.0
2017-Sep-05 10:57N 29°47' W 095°05'0 0.0
2017-Sep-05 10:25N 29°47' W 095°05'0 0.0
2017-Sep-05 10:00N 29°47' W 095°05'0 0.0
2017-Sep-05 09:26N 29°47' W 095°05'3 1.6
2017-Sep-05 07:21N 29°44' W 095°03'1 4.3
2017-Sep-05 07:00N 29°44' W 095°02'2 3.7
2017-Sep-05 06:31N 29°42' W 095°01'2 3.8
2017-Sep-05 06:00N 29°41' W 094°59'2 4.1
2017-Sep-05 05:30N 29°39' W 094°58'2 4.2
2017-Sep-05 05:00N 29°37' W 094°58'3 5.1
2017-Sep-05 04:30N 29°37' W 095°00'1 1.7
2017-Sep-05 04:01N 29°37' W 095°01'0 0.1
2017-Sep-05 03:30N 29°37' W 095°01'0 0.0
2017-Sep-05 03:00N 29°37' W 095°01'0 0.0
2017-Sep-05 02:30N 29°37' W 095°01'0 0.2
2017-Sep-05 02:00N 29°37' W 095°01'0 0.2
2017-Sep-05 01:30N 29°37' W 095°01'0 0.1
2017-Sep-05 01:01N 29°37' W 095°01'0 0.2
2017-Sep-05 00:30N 29°37' W 095°01'0 0.0
2017-Sep-05 00:00N 29°37' W 095°01'0 0.0
2017-Sep-04 23:30N 29°37' W 095°01'0 0.0
2017-Sep-04 23:00N 29°37' W 095°01'0 0.0
2017-Sep-04 22:31N 29°37' W 095°01'0 0.0
2017-Sep-04 22:00N 29°37' W 095°01'0 0.0
2017-Sep-04 21:30N 29°37' W 095°01'0 0.0
2017-Sep-04 21:01N 29°37' W 095°01'0 0.0
2017-Sep-04 20:30N 29°37' W 095°01'0 0.0
2017-Sep-04 20:00N 29°37' W 095°01'0 0.0
2017-Sep-04 19:30N 29°37' W 095°01'0 0.0
2017-Sep-04 19:00N 29°37' W 095°01'0 0.0
2017-Sep-04 18:30N 29°37' W 095°01'0 0.3
2017-Sep-04 18:00N 29°37' W 095°01'0 0.3
2017-Sep-04 17:30N 29°37' W 095°01'0 0.0
2017-Sep-04 17:00N 29°37' W 095°01'0 0.0
2017-Sep-04 16:31N 29°37' W 095°01'0 0.0
2017-Sep-04 16:00N 29°37' W 095°01'0 0.0
2017-Sep-04 15:30N 29°37' W 095°01'0 0.0
2017-Sep-04 15:00N 29°37' W 095°01'0 0.3
2017-Sep-04 14:30N 29°37' W 095°01'0 0.0
2017-Sep-04 14:00N 29°37' W 095°01'0 0.2
2017-Sep-04 13:30N 29°37' W 095°01'0 0.1
2017-Sep-04 13:00N 29°37' W 095°01'0 0.1
2017-Sep-04 12:30N 29°37' W 095°01'0 0.0
2017-Sep-04 12:00N 29°37' W 095°01'0 0.0
2017-Sep-04 11:30N 29°37' W 095°01'0 0.2
2017-Sep-04 11:00N 29°37' W 095°01'0 0.2
2017-Sep-04 10:30N 29°37' W 095°01'0 0.0
2017-Sep-04 10:00N 29°37' W 095°01'0 0.0
2017-Sep-04 09:30N 29°37' W 095°01'0 0.0
2017-Sep-04 09:00N 29°37' W 095°01'0 0.0
2017-Sep-04 08:30N 29°37' W 095°01'0 0.0
2017-Sep-04 08:00N 29°37' W 095°01'0 0.0
2017-Sep-04 07:30N 29°37' W 095°01'0 0.0
2017-Sep-04 07:00N 29°37' W 095°01'0 0.0
2017-Sep-04 06:30N 29°37' W 095°01'0 0.0
2017-Sep-04 06:00N 29°37' W 095°01'0 0.0
2017-Sep-04 05:30N 29°37' W 095°01'0 0.0
2017-Sep-04 05:00N 29°37' W 095°01'0 0.0
2017-Sep-04 04:30N 29°37' W 095°01'0 0.0
2017-Sep-04 04:00N 29°37' W 095°01'0 0.0
2017-Sep-04 03:30N 29°37' W 095°01'0 0.0
2017-Sep-04 03:00N 29°37' W 095°01'0 0.0
2017-Sep-04 02:30N 29°37' W 095°01'0 0.2
2017-Sep-04 02:00N 29°37' W 095°01'0 0.0
2017-Sep-04 01:30N 29°37' W 095°01'0 0.3
2017-Sep-04 01:00N 29°37' W 095°01'0 0.3
2017-Sep-04 00:30N 29°37' W 095°01'0 0.0
2017-Sep-04 00:00N 29°37' W 095°01'0 0.0
2017-Sep-03 23:30N 29°37' W 095°01'0 0.1
2017-Sep-03 23:00N 29°37' W 095°01'0 0.2
2017-Sep-03 22:30N 29°37' W 095°01'2 4.8
2017-Sep-03 22:00N 29°37' W 094°59'2 3.3
2017-Sep-03 21:30N 29°38' W 094°58'1 2.8
2017-Sep-03 21:00N 29°40' W 094°58'3 5.2
2017-Sep-03 20:30N 29°42' W 095°00'2 4.7
2017-Sep-03 20:00N 29°44' W 095°02'3 4.7
2017-Sep-03 19:21N 29°46' W 095°05'2 0.3
2017-Sep-03 14:00N 29°47' W 095°05'0 0.0
2017-Sep-03 13:29N 29°47' W 095°05'0 0.0
2017-Sep-03 13:00N 29°47' W 095°05'0 0.0
2017-Sep-03 10:44N 29°47' W 095°05'0 0.0
2017-Sep-03 10:31N 29°47' W 095°05'0 0.0
2017-Sep-02 10:42N 29°47' W 095°05'0 0.0
2017-Sep-02 10:26N 29°47' W 095°05'0 0.0
2017-Sep-02 09:59N 29°47' W 095°05'0 0.0
2017-Sep-02 08:32N 29°47' W 095°05'0 0.0
2017-Sep-02 08:20N 29°47' W 095°05'0 0.0
2017-Sep-02 07:57N 29°47' W 095°05'0 0.0
2017-Sep-02 05:43N 29°47' W 095°05'0 0.0
2017-Sep-02 00:32N 29°47' W 095°05'0 0.0
2017-Sep-02 00:24N 29°47' W 095°05'0 0.0
2017-Sep-01 21:56N 29°47' W 095°05'0 0.0
2017-Sep-01 21:23N 29°47' W 095°05'0 0.0
2017-Sep-01 20:53N 29°47' W 095°05'0 0.0
2017-Sep-01 20:29N 29°47' W 095°05'0 0.0
2017-Sep-01 20:00N 29°47' W 095°05'0 0.0
2017-Sep-01 18:31N 29°47' W 095°05'0 0.0
2017-Sep-01 18:25N 29°47' W 095°05'0 0.0
2017-Sep-01 17:31N 29°47' W 095°05'0 0.0
2017-Sep-01 17:16N 29°47' W 095°05'0 0.0
2017-Sep-01 12:59N 29°47' W 095°05'0 0.0
2017-Sep-01 12:30N 29°47' W 095°05'0 0.0
2017-Sep-01 06:39N 29°47' W 095°05'0 0.0
2017-Sep-01 06:30N 29°47' W 095°05'0 0.0
2017-Sep-01 05:59N 29°47' W 095°05'  
Track history (hours):
 
Tides and Currents Weather Stations Pressure Air Temp Water Temp Dewpoint Dewpoint Depression Visibility Wind Speed Wind Dir Waves Ship Positions

James L. Oberstar

Owner: Destin Trading Corporation, harahan, LA. More information available from US FCC via Universal Licensing System and Coast Guard Vessel Documentation Center.

Last reported at 2017-Sep-08 08:10 UTC. Time now 2017-Sep-22 08:04 UTC.
Position N 29°49' W 092°03'.
Warning: this ship's position is 13 days out of date.

Length 26 m; draft 3 m.

Type: Towing. MMSI: 367052120.

Date/timePositionNaut miles runAvg speedWind from/ knotsBaromVisibWave heightAir tempDewpointWater temp
2017-Sep-08 08:10N 29°49' W 092°03'1 5.0
2017-Sep-08 07:59N 29°48' W 092°05'2 4.9
2017-Sep-08 07:30N 29°47' W 092°07'3 5.1
2017-Sep-08 07:00N 29°47' W 092°10'2 4.7
2017-Sep-08 06:30N 29°47' W 092°13'2 3.6
2017-Sep-08 06:00N 29°48' W 092°14'3 5.2
2017-Sep-08 05:30N 29°49' W 092°17'44 4.5
2017-Sep-07 19:48N 29°56' W 093°07'1 4.3
2017-Sep-07 19:30N 29°56' W 093°08'1 2.8
2017-Sep-07 19:00N 29°56' W 093°10'2 4.5
2017-Sep-07 18:30N 29°58' W 093°11'2 4.5
2017-Sep-07 18:00N 29°60' W 093°13'2 3.9
2017-Sep-07 17:30N 30°02' W 093°14'2 3.8
2017-Sep-07 17:00N 30°03' W 093°16'1 2.1
2017-Sep-07 16:30N 30°04' W 093°16'2 3.6
2017-Sep-07 16:00N 30°05' W 093°17'1 2.7
2017-Sep-07 15:30N 30°06' W 093°19'1 2.5
2017-Sep-07 15:00N 30°05' W 093°20'2 4.1
2017-Sep-07 14:30N 30°04' W 093°21'10 4.1
2017-Sep-07 12:08N 30°04' W 093°32'1 4.2
2017-Sep-07 11:59N 30°04' W 093°33'2 4.0
2017-Sep-07 11:30N 30°04' W 093°35'2 4.3
2017-Sep-07 11:00N 30°04' W 093°38'2 4.7
2017-Sep-07 10:29N 30°04' W 093°41'4 0.9
2017-Sep-07 05:22N 30°01' W 093°45'0 0.0
2017-Sep-07 04:59N 30°01' W 093°45'66 2.2
2017-Sep-05 22:50N 29°31' W 094°53'2 6.3
2017-Sep-05 22:30N 29°33' W 094°55'3 6.3
2017-Sep-05 22:00N 29°36' W 094°57'3 6.4
2017-Sep-05 21:30N 29°39' W 094°58'3 6.5
2017-Sep-05 21:00N 29°42' W 094°60'3 5.6
2017-Sep-05 20:30N 29°44' W 095°02'4 0.6
2017-Sep-05 12:43N 29°47' W 095°05'0 0.0
2017-Sep-05 12:22N 29°47' W 095°05'0 0.0
2017-Sep-05 11:57N 29°47' W 095°05'0 0.0
2017-Sep-05 11:23N 29°47' W 095°05'0 0.0
2017-Sep-05 10:57N 29°47' W 095°05'0 0.0
2017-Sep-05 10:25N 29°47' W 095°05'0 0.0
2017-Sep-05 10:00N 29°47' W 095°05'0 0.0
2017-Sep-05 09:26N 29°47' W 095°05'3 1.6
2017-Sep-05 07:21N 29°44' W 095°03'1 4.3
2017-Sep-05 07:00N 29°44' W 095°02'2 3.7
2017-Sep-05 06:31N 29°42' W 095°01'2 3.8
2017-Sep-05 06:00N 29°41' W 094°59'2 4.1
2017-Sep-05 05:30N 29°39' W 094°58'2 4.2
2017-Sep-05 05:00N 29°37' W 094°58'3 5.1
2017-Sep-05 04:30N 29°37' W 095°00'1 1.7
2017-Sep-05 04:01N 29°37' W 095°01'0 0.1
2017-Sep-05 03:30N 29°37' W 095°01'0 0.0
2017-Sep-05 03:00N 29°37' W 095°01'0 0.0
2017-Sep-05 02:30N 29°37' W 095°01'0 0.2
2017-Sep-05 02:00N 29°37' W 095°01'0 0.2
2017-Sep-05 01:30N 29°37' W 095°01'0 0.1
2017-Sep-05 01:01N 29°37' W 095°01'0 0.2
2017-Sep-05 00:30N 29°37' W 095°01'0 0.0
2017-Sep-05 00:00N 29°37' W 095°01'0 0.0
2017-Sep-04 23:30N 29°37' W 095°01'0 0.0
2017-Sep-04 23:00N 29°37' W 095°01'0 0.0
2017-Sep-04 22:31N 29°37' W 095°01'0 0.0
2017-Sep-04 22:00N 29°37' W 095°01'0 0.0
2017-Sep-04 21:30N 29°37' W 095°01'0 0.0
2017-Sep-04 21:01N 29°37' W 095°01'0 0.0
2017-Sep-04 20:30N 29°37' W 095°01'0 0.0
2017-Sep-04 20:00N 29°37' W 095°01'0 0.0
2017-Sep-04 19:30N 29°37' W 095°01'0 0.0
2017-Sep-04 19:00N 29°37' W 095°01'0 0.0
2017-Sep-04 18:30N 29°37' W 095°01'0 0.3
2017-Sep-04 18:00N 29°37' W 095°01'0 0.3
2017-Sep-04 17:30N 29°37' W 095°01'0 0.0
2017-Sep-04 17:00N 29°37' W 095°01'0 0.0
2017-Sep-04 16:31N 29°37' W 095°01'0 0.0
2017-Sep-04 16:00N 29°37' W 095°01'0 0.0
2017-Sep-04 15:30N 29°37' W 095°01'0 0.0
2017-Sep-04 15:00N 29°37' W 095°01'0 0.3
2017-Sep-04 14:30N 29°37' W 095°01'0 0.0
2017-Sep-04 14:00N 29°37' W 095°01'0 0.2
2017-Sep-04 13:30N 29°37' W 095°01'0 0.1
2017-Sep-04 13:00N 29°37' W 095°01'0 0.1
2017-Sep-04 12:30N 29°37' W 095°01'0 0.0
2017-Sep-04 12:00N 29°37' W 095°01'0 0.0
2017-Sep-04 11:30N 29°37' W 095°01'0 0.2
2017-Sep-04 11:00N 29°37' W 095°01'0 0.2
2017-Sep-04 10:30N 29°37' W 095°01'0 0.0
2017-Sep-04 10:00N 29°37' W 095°01'0 0.0
2017-Sep-04 09:30N 29°37' W 095°01'0 0.0
2017-Sep-04 09:00N 29°37' W 095°01'0 0.0
2017-Sep-04 08:30N 29°37' W 095°01'0 0.0
2017-Sep-04 08:00N 29°37' W 095°01'0 0.0
2017-Sep-04 07:30N 29°37' W 095°01'0 0.0
2017-Sep-04 07:00N 29°37' W 095°01'0 0.0
2017-Sep-04 06:30N 29°37' W 095°01'0 0.0
2017-Sep-04 06:00N 29°37' W 095°01'0 0.0
2017-Sep-04 05:30N 29°37' W 095°01'0 0.0
2017-Sep-04 05:00N 29°37' W 095°01'0 0.0
2017-Sep-04 04:30N 29°37' W 095°01'0 0.0
2017-Sep-04 04:00N 29°37' W 095°01'0 0.0
2017-Sep-04 03:30N 29°37' W 095°01'0 0.0
2017-Sep-04 03:00N 29°37' W 095°01'0 0.0
2017-Sep-04 02:30N 29°37' W 095°01'0 0.2
2017-Sep-04 02:00N 29°37' W 095°01'0 0.0
2017-Sep-04 01:30N 29°37' W 095°01'0 0.3
2017-Sep-04 01:00N 29°37' W 095°01'0 0.3
2017-Sep-04 00:30N 29°37' W 095°01'0 0.0
2017-Sep-04 00:00N 29°37' W 095°01'0 0.0
2017-Sep-03 23:30N 29°37' W 095°01'0 0.1
2017-Sep-03 23:00N 29°37' W 095°01'0 0.2
2017-Sep-03 22:30N 29°37' W 095°01'2 4.8
2017-Sep-03 22:00N 29°37' W 094°59'2 3.3
2017-Sep-03 21:30N 29°38' W 094°58'1 2.8
2017-Sep-03 21:00N 29°40' W 094°58'3 5.2
2017-Sep-03 20:30N 29°42' W 095°00'2 4.7
2017-Sep-03 20:00N 29°44' W 095°02'3 4.7
2017-Sep-03 19:21N 29°46' W 095°05'2 0.3
2017-Sep-03 14:00N 29°47' W 095°05'0 0.0
2017-Sep-03 13:29N 29°47' W 095°05'0 0.0
2017-Sep-03 13:00N 29°47' W 095°05'0 0.0
2017-Sep-03 10:44N 29°47' W 095°05'0 0.0
2017-Sep-03 10:31N 29°47' W 095°05'0 0.0
2017-Sep-02 10:42N 29°47' W 095°05'0 0.0
2017-Sep-02 10:26N 29°47' W 095°05'0 0.0
2017-Sep-02 09:59N 29°47' W 095°05'0 0.0
2017-Sep-02 08:32N 29°47' W 095°05'0 0.0
2017-Sep-02 08:20N 29°47' W 095°05'0 0.0
2017-Sep-02 07:57N 29°47' W 095°05'0 0.0
2017-Sep-02 05:43N 29°47' W 095°05'0 0.0
2017-Sep-02 00:32N 29°47' W 095°05'0 0.0
2017-Sep-02 00:24N 29°47' W 095°05'0 0.0
2017-Sep-01 21:56N 29°47' W 095°05'0 0.0
2017-Sep-01 21:23N 29°47' W 095°05'0 0.0
2017-Sep-01 20:53N 29°47' W 095°05'0 0.0
2017-Sep-01 20:29N 29°47' W 095°05'0 0.0
2017-Sep-01 20:00N 29°47' W 095°05'0 0.0
2017-Sep-01 18:31N 29°47' W 095°05'0 0.0
2017-Sep-01 18:25N 29°47' W 095°05'0 0.0
2017-Sep-01 17:31N 29°47' W 095°05'0 0.0
2017-Sep-01 17:16N 29°47' W 095°05'0 0.0
2017-Sep-01 12:59N 29°47' W 095°05'0 0.0
2017-Sep-01 12:30N 29°47' W 095°05'0 0.0
2017-Sep-01 06:39N 29°47' W 095°05'0 0.0
2017-Sep-01 06:30N 29°47' W 095°05'0 0.0
2017-Sep-01 05:59N 29°47' W 095°05'  

Dump ship's entire track history